Minot International Airport Minot US
ICAO: KMOT
IATA: MOT
Category: Medium
Scheduled Services: Yes

Elevation: 1716 ft
TransAlt. 18000 ft.

Airport Communications:
APP:119.6
CTAF:118.2
DEP:119.6
GND:121.9
GRAND FORKS RDO:122.2
MAGIC CITY TWR:118.2
UNICOM:122.95

KMOT Zoom In..

If Map Doesn't Load, Click Here

Runways:

(A) RW 08 length 6351 ft width 100 ft
---- / hdg 80

(B) RW 13 length 7700 ft width 150 ft
---- / hdg 128

(C) RW 26 length 6351 ft width 100 ft
---- / hdg 260

(D) RW 31 length 7700 ft width 150 ft
ILS 111.90 / hdg 308

Location; KMOT
Day. 23 / Time. 07.54 Zulu
* Altimeter: 30.07
* Temperature: 03° c. 37.4°f.
* Wind from: 060° Speed 12 kn.
Dewpoint: 02° c.
Visibility: 10 Statute Miles.
Clouds: Overcast 700 ft.

KMOT 230754Z AUTO 06012KT 10SM OVC007 03/02 A3007 RMK AO2 SLP196 T00330017


Wind From 060°
Speed 12 kn.

 
 
jpsmedia.com for Web Design worldairports.se 2018   terms of use